sensor_id;sensor_type;location;lat;lon;timestamp;pressure;altitude;pressure_sealevel;temperature;humidity
52993;BME280;38875;52.216;21.040;2023-01-25T08:15:20;144499.09;;;-1.62;100.00
52993;BME280;38875;52.216;21.040;2023-01-25T08:17:47;144494.06;;;-1.64;100.00
52993;BME280;38875;52.216;21.040;2023-01-25T08:20:13;144494.06;;;-1.64;100.00
52993;BME280;38875;52.216;21.040;2023-01-25T08:22:39;144486.53;;;-1.67;100.00
52993;BME280;38875;52.216;21.040;2023-01-25T08:25:05;144506.63;;;-1.59;100.00
52993;BME280;38875;52.216;21.040;2023-01-25T08:27:31;144512.91;;;-1.57;100.00
52993;BME280;38875;52.216;21.040;2023-01-25T08:29:56;144510.41;;;-1.58;100.00
52993;BME280;38875;52.216;21.040;2023-01-25T08:32:47;144509.13;;;-1.58;100.00
52993;BME280;38875;52.216;21.040;2023-01-25T08:35:13;144536.78;;;-1.47;100.00
52993;BME280;38875;52.216;21.040;2023-01-25T08:37:38;144594.63;;;-1.23;100.00
52993;BME280;38875;52.216;21.040;2023-01-25T08:40:04;144569.50;;;-1.34;100.00
52993;BME280;38875;52.216;21.040;2023-01-25T08:42:32;144554.41;;;-1.40;100.00
52993;BME280;38875;52.216;21.040;2023-01-25T08:44:59;144538.03;;;-1.46;100.00
52993;BME280;38875;52.216;21.040;2023-01-25T08:47:25;144539.28;;;-1.46;100.00
52993;BME280;38875;52.216;21.040;2023-01-25T08:49:51;144574.53;;;-1.32;100.00
52993;BME280;38875;52.216;21.040;2023-01-25T08:52:17;144599.66;;;-1.21;100.00
52993;BME280;38875;52.216;21.040;2023-01-25T08:54:42;144604.69;;;-1.19;100.00
52993;BME280;38875;52.216;21.040;2023-01-25T08:57:09;144598.41;;;-1.22;100.00
52993;BME280;38875;52.216;21.040;2023-01-25T08:59:34;144610.97;;;-1.17;100.00
52993;BME280;38875;52.216;21.040;2023-01-25T09:02:00;144519.19;;;-1.54;100.00
52993;BME280;38875;52.216;21.040;2023-01-25T09:04:26;144516.69;;;-1.55;100.00
52993;BME280;38875;52.216;21.040;2023-01-25T09:06:54;144546.88;;;-1.43;100.00
52993;BME280;38875;52.216;21.040;2023-01-25T09:09:20;144588.34;;;-1.26;100.00
52993;BME280;38875;52.216;21.040;2023-01-25T09:11:49;144617.28;;;-1.14;100.00
52993;BME280;38875;52.216;21.040;2023-01-25T09:14:15;144533.00;;;-1.48;100.00
52993;BME280;38875;52.216;21.040;2023-01-25T09:16:43;144520.44;;;-1.53;100.00
52993;BME280;38875;52.216;21.040;2023-01-25T09:19:08;144496.56;;;-1.63;100.00
52993;BME280;38875;52.216;21.040;2023-01-25T09:21:34;144568.25;;;-1.34;100.00
52993;BME280;38875;52.216;21.040;2023-01-25T09:24:01;144574.53;;;-1.32;100.00
52993;BME280;38875;52.216;21.040;2023-01-25T09:26:27;144612.22;;;-1.16;100.00
52993;BME280;38875;52.216;21.040;2023-01-25T09:28:53;144529.25;;;-1.50;100.00
52993;BME280;38875;52.216;21.040;2023-01-25T09:31:20;144549.38;;;-1.42;100.00
52993;BME280;38875;52.216;21.040;2023-01-25T09:33:46;144574.53;;;-1.32;100.00
52993;BME280;38875;52.216;21.040;2023-01-25T09:36:12;144602.16;;;-1.20;100.00
52993;BME280;38875;52.216;21.040;2023-01-25T09:38:39;144618.56;;;-1.14;100.00
52993;BME280;38875;52.216;21.040;2023-01-25T09:44:07;144655.00;;;-0.99;100.00
52993;BME280;38875;52.216;21.040;2023-01-25T09:46:43;144685.16;;;-0.87;100.00
52993;BME280;38875;52.216;21.040;2023-01-25T09:54:56;144612.22;;;-1.16;100.00
52993;BME280;38875;52.216;21.040;2023-01-25T09:57:28;144637.41;;;-1.06;100.00
52993;BME280;38875;52.216;21.040;2023-01-25T09:59:59;144559.44;;;-1.38;100.00
52993;BME280;38875;52.216;21.040;2023-01-25T10:02:46;144634.91;;;-1.07;100.00
52993;BME280;38875;52.216;21.040;2023-01-25T10:05:24;144680.16;;;-0.89;100.00
52993;BME280;38875;52.216;21.040;2023-01-25T10:07:56;144656.25;;;-0.99;100.00
52993;BME280;38875;52.216;21.040;2023-01-25T10:10:32;144636.16;;;-1.07;100.00
52993;BME280;38875;52.216;21.040;2023-01-25T10:13:00;144622.31;;;-1.12;100.00
52993;BME280;38875;52.216;21.040;2023-01-25T10:15:36;144642.44;;;-1.04;100.00
52993;BME280;38875;52.216;21.040;2023-01-25T10:18:19;144627.34;;;-1.10;100.00
52993;BME280;38875;52.216;21.040;2023-01-25T10:20:53;144521.69;;;-1.53;100.00
52993;BME280;38875;52.216;21.040;2023-01-25T10:26:17;144570.75;;;-1.33;100.00
52993;BME280;38875;52.216;21.040;2023-01-25T10:31:41;144632.38;;;-1.08;100.00
52993;BME280;38875;52.216;21.040;2023-01-25T10:36:45;144690.25;;;-0.85;100.00
52993;BME280;38875;52.216;21.040;2023-01-25T10:39:12;144700.31;;;-0.81;100.00
52993;BME280;38875;52.216;21.040;2023-01-25T10:41:40;144677.63;;;-0.90;100.00
52993;BME280;38875;52.216;21.040;2023-01-25T10:44:10;144719.16;;;-0.73;100.00
52993;BME280;38875;52.216;21.040;2023-01-25T10:49:53;144665.06;;;-0.95;100.00
52993;BME280;38875;52.216;21.040;2023-01-25T10:52:30;144652.50;;;-1.00;100.00
52993;BME280;38875;52.216;21.040;2023-01-25T10:55:07;144702.81;;;-0.80;100.00
52993;BME280;38875;52.216;21.040;2023-01-25T10:57:35;144602.16;;;-1.20;100.00
52993;BME280;38875;52.216;21.040;2023-01-25T11:00:05;144667.56;;;-0.94;100.00
52993;BME280;38875;52.216;21.040;2023-01-25T11:02:37;144697.78;;;-0.82;100.00
52993;BME280;38875;52.216;21.040;2023-01-25T11:05:26;144649.97;;;-1.01;100.00
52993;BME280;38875;52.216;21.040;2023-01-25T11:07:52;144667.56;;;-0.94;100.00
52993;BME280;38875;52.216;21.040;2023-01-25T11:10:33;144690.25;;;-0.85;100.00
52993;BME280;38875;52.216;21.040;2023-01-25T11:15:46;144632.38;;;-1.08;100.00
52993;BME280;38875;52.216;21.040;2023-01-25T11:18:17;144599.66;;;-1.21;100.00
52993;BME280;38875;52.216;21.040;2023-01-25T11:20:43;144651.22;;;-1.01;100.00
52993;BME280;38875;52.216;21.040;2023-01-25T11:23:22;144643.69;;;-1.04;100.00
52993;BME280;38875;52.216;21.040;2023-01-25T11:25:51;144702.81;;;-0.80;100.00
52993;BME280;38875;52.216;21.040;2023-01-25T11:28:23;144717.91;;;-0.74;100.00
52993;BME280;38875;52.216;21.040;2023-01-25T11:30:51;144727.97;;;-0.70;100.00
52993;BME280;38875;52.216;21.040;2023-01-25T11:33:20;144700.31;;;-0.81;100.00
52993;BME280;38875;52.216;21.040;2023-01-25T11:36:18;144627.34;;;-1.10;100.00
52993;BME280;38875;52.216;21.040;2023-01-25T11:41:32;144712.88;;;-0.76;100.00
52993;BME280;38875;52.216;21.040;2023-01-25T11:47:19;144690.25;;;-0.85;100.00
52993;BME280;38875;52.216;21.040;2023-01-25T11:49:58;144727.97;;;-0.70;100.00
52993;BME280;38875;52.216;21.040;2023-01-25T11:52:41;144683.91;;;-0.87;100.00
52993;BME280;38875;52.216;21.040;2023-01-25T12:03:24;144760.69;;;-0.56;100.00
52993;BME280;38875;52.216;21.040;2023-01-25T12:07:04;144760.69;;;-0.56;100.00
52993;BME280;38875;52.216;21.040;2023-01-25T12:14:43;144738.03;;;-0.66;100.00
52993;BME280;38875;52.216;21.040;2023-01-25T12:17:54;144686.47;;;-0.86;100.00
52993;BME280;38875;52.216;21.040;2023-01-25T12:20:30;144740.53;;;-0.65;100.00
52993;BME280;38875;52.216;21.040;2023-01-25T12:23:27;144760.69;;;-0.56;100.00
52993;BME280;38875;52.216;21.040;2023-01-25T12:28:38;144655.00;;;-0.99;100.00
52993;BME280;38875;52.216;21.040;2023-01-25T12:31:21;144677.63;;;-0.90;100.00
52993;BME280;38875;52.216;21.040;2023-01-25T12:34:00;144690.25;;;-0.85;100.00
52993;BME280;38875;52.216;21.040;2023-01-25T12:36:31;144631.13;;;-1.09;100.00
52993;BME280;38875;52.216;21.040;2023-01-25T12:42:11;144690.25;;;-0.85;100.00
52993;BME280;38875;52.216;21.040;2023-01-25T12:44:44;144653.75;;;-1.00;100.00
52993;BME280;38875;52.216;21.040;2023-01-25T12:47:27;144673.84;;;-0.91;100.00
52993;BME280;38875;52.216;21.040;2023-01-25T12:50:14;144672.59;;;-0.92;100.00
52993;BME280;38875;52.216;21.040;2023-01-25T12:52:47;144662.53;;;-0.96;100.00
52993;BME280;38875;52.216;21.040;2023-01-25T12:55:15;144644.94;;;-1.03;100.00
52993;BME280;38875;52.216;21.040;2023-01-25T13:03:27;144671.34;;;-0.93;100.00
52993;BME280;38875;52.216;21.040;2023-01-25T13:06:14;144694.03;;;-0.83;100.00
52993;BME280;38875;52.216;21.040;2023-01-25T13:11:20;144687.72;;;-0.86;100.00
52993;BME280;38875;52.216;21.040;2023-01-25T13:13:48;144700.31;;;-0.81;100.00
52993;BME280;38875;52.216;21.040;2023-01-25T13:16:32;144730.47;;;-0.69;100.00
52993;BME280;38875;52.216;21.040;2023-01-25T13:18:59;144750.59;;;-0.60;100.00
52993;BME280;38875;52.216;21.040;2023-01-25T13:21:44;144738.03;;;-0.66;100.00
52993;BME280;38875;52.216;21.040;2023-01-25T13:31:54;144818.56;;;-0.33;100.00
52993;BME280;38875;52.216;21.040;2023-01-25T13:39:49;144746.81;;;-0.62;100.00
52993;BME280;38875;52.216;21.040;2023-01-25T13:44:58;144803.47;;;-0.39;100.00
52993;BME280;38875;52.216;21.040;2023-01-25T13:47:32;144807.22;;;-0.38;100.00
52993;BME280;38875;52.216;21.040;2023-01-25T13:50:21;144803.47;;;-0.39;100.00
52993;BME280;38875;52.216;21.040;2023-01-25T13:52:56;144836.22;;;-0.26;100.00
52993;BME280;38875;52.216;21.040;2023-01-25T13:55:22;144792.13;;;-0.44;100.00
52993;BME280;38875;52.216;21.040;2023-01-25T13:57:48;144773.28;;;-0.51;100.00
52993;BME280;38875;52.216;21.040;2023-01-25T14:00:16;144754.38;;;-0.59;100.00
52993;BME280;38875;52.216;21.040;2023-01-25T14:02:44;144734.25;;;-0.67;100.00
52993;BME280;38875;52.216;21.040;2023-01-25T14:07:45;144751.84;;;-0.60;100.00
52993;BME280;38875;52.216;21.040;2023-01-25T14:10:18;144735.50;;;-0.67;100.00
52993;BME280;38875;52.216;21.040;2023-01-25T14:12:48;144725.44;;;-0.71;100.00
52993;BME280;38875;52.216;21.040;2023-01-25T14:17:41;144722.94;;;-0.72;100.00
